Time;durP1;ratioP1;P1;durP2;ratioP2;P2;SDS_P1;SDS_P2;PMS_P1;PMS_P2;Temp;Humidity;BMP_temperature;BMP_pressure;BME280_temperature;BME280_humidity;BME280_pressure;Samples;Min_cycle;Max_cycle;Signal;HPM_P1;HPM_P2
2022/03/02 00:00:43;;;;;;;;;;;5.60;99.90;;;;;;4985906;28;19971;-74
2022/03/02 00:03:09;;;;;;;;;;;5.60;99.90;;;;;;4997965;28;19922;-73
2022/03/02 00:05:36;;;;;;;;;;;5.60;99.90;;;;;;5011201;28;20461;-73
2022/03/02 00:08:03;;;;;;;;;;;5.60;99.90;;;;;;4997386;28;19929;-74
2022/03/02 00:10:28;;;;;;;;;;;5.60;99.90;;;;;;4998103;28;19988;-73
2022/03/02 00:12:54;;;;;;;;;;;5.60;99.90;;;;;;4996894;28;19922;-73
2022/03/02 00:15:19;;;;;;;;;;;5.60;99.90;;;;;;4993800;28;19936;-75
2022/03/02 00:17:45;;;;;;;;;;;5.60;99.90;;;;;;4977834;28;19925;-73
2022/03/02 00:20:12;;;;;;;;;;;5.60;99.90;;;;;;5013649;28;19975;-73
2022/03/02 00:22:39;;;;;;;;;;;5.60;99.90;;;;;;4981349;28;19928;-75
2022/03/02 00:25:05;;;;;;;;;;;5.50;99.90;;;;;;4996001;28;19929;-73
2022/03/02 00:27:31;;;;;;;;;;;5.60;99.90;;;;;;4972037;28;19929;-73
2022/03/02 00:29:56;;;;;;;;;;;5.60;99.90;;;;;;4981117;28;19922;-74
2022/03/02 00:32:22;;;;;;;;;;;5.50;99.90;;;;;;4981243;28;19921;-74
2022/03/02 00:34:47;;;;;;;;;;;5.60;99.90;;;;;;4980590;28;19922;-73
2022/03/02 00:37:14;;;;;;;;;;;5.50;99.90;;;;;;4966020;28;19926;-73
2022/03/02 00:39:40;;;;;;;;;;;5.60;99.90;;;;;;4989079;28;19953;-73
2022/03/02 00:42:06;;;;;;;;;;;5.60;99.90;;;;;;4996841;28;19931;-76
2022/03/02 00:44:32;;;;;;;;;;;5.50;99.90;;;;;;4980426;28;20008;-73
2022/03/02 00:46:58;;;;;;;;;;;5.50;99.90;;;;;;4964622;28;19921;-73
2022/03/02 00:49:26;;;;;;;;;;;5.50;99.90;;;;;;5009857;28;19921;-73
2022/03/02 00:51:53;;;;;;;;;;;5.50;99.90;;;;;;4969447;28;19922;-73
2022/03/02 00:54:18;;;;;;;;;;;5.50;99.90;;;;;;4993514;28;19976;-75
2022/03/02 00:56:44;;;;;;;;;;;5.50;99.90;;;;;;5009954;28;20340;-73
2022/03/02 00:59:09;;;;;;;;;;;5.50;99.90;;;;;;4977204;28;20380;-74
2022/03/02 01:01:35;;;;;;;;;;;5.50;99.90;;;;;;5009399;28;19933;-74
2022/03/02 01:04:00;;;;;;;;;;;5.50;99.90;;;;;;4976819;28;19928;-73
2022/03/02 01:06:26;;;;;;;;;;;5.50;99.90;;;;;;4968621;28;19929;-73
2022/03/02 01:08:51;;;;;;;;;;;5.50;99.90;;;;;;4980716;28;20276;-73
2022/03/02 01:11:17;;;;;;;;;;;5.40;99.90;;;;;;5012464;28;20373;-75
2022/03/02 01:13:42;;;;;;;;;;;5.40;99.90;;;;;;4961011;28;20405;-73
2022/03/02 01:16:08;;;;;;;;;;;5.40;99.90;;;;;;4977211;28;20007;-73
2022/03/02 01:18:34;;;;;;;;;;;5.40;99.90;;;;;;5004112;28;19976;-73
2022/03/02 01:20:59;;;;;;;;;;;5.40;99.90;;;;;;4962045;28;19953;-75
2022/03/02 01:23:25;;;;;;;;;;;5.40;99.90;;;;;;4977923;28;19944;-73
2022/03/02 01:25:51;;;;;;;;;;;5.40;99.90;;;;;;4992794;28;19929;-73
2022/03/02 01:28:16;;;;;;;;;;;5.40;99.90;;;;;;5009511;28;19929;-73
2022/03/02 01:30:42;;;;;;;;;;;5.40;99.90;;;;;;5003990;28;19928;-73
2022/03/02 01:33:07;;;;;;;;;;;5.40;99.90;;;;;;4993335;28;20036;-74
2022/03/02 01:35:33;;;;;;;;;;;5.40;99.90;;;;;;4978627;28;19925;-73
2022/03/02 01:37:58;;;;;;;;;;;5.40;99.90;;;;;;4960341;28;19922;-73
2022/03/02 01:40:24;;;;;;;;;;;5.30;99.90;;;;;;4976646;28;19925;-73
2022/03/02 01:42:49;;;;;;;;;;;5.40;99.90;;;;;;4974709;28;20004;-76
2022/03/02 01:45:15;;;;;;;;;;;5.30;99.90;;;;;;4966601;28;19929;-73
2022/03/02 01:47:41;;;;;;;;;;;5.30;99.90;;;;;;4978189;28;19971;-73
2022/03/02 01:50:08;;;;;;;;;;;5.30;99.90;;;;;;4996312;28;20021;-74
2022/03/02 01:52:34;;;;;;;;;;;5.40;99.90;;;;;;4985143;28;19922;-74
2022/03/02 01:55:00;;;;;;;;;;;5.40;99.90;;;;;;5017379;28;20366;-73
2022/03/02 01:57:26;;;;;;;;;;;5.40;99.90;;;;;;4978585;28;19922;-74
2022/03/02 01:59:51;;;;;;;;;;;5.40;99.90;;;;;;4960010;28;19926;-73
2022/03/02 02:02:17;;;;;;;;;;;5.40;99.90;;;;;;4994903;28;20056;-73
2022/03/02 02:04:43;;;;;;;;;;;5.40;99.90;;;;;;4995537;28;20284;-74
2022/03/02 02:07:08;;;;;;;;;;;5.30;99.90;;;;;;5012261;28;19928;-76
2022/03/02 02:09:34;;;;;;;;;;;5.40;99.90;;;;;;5011247;28;20017;-74
2022/03/02 02:11:59;;;;;;;;;;;5.40;99.90;;;;;;4995152;28;20004;-73
2022/03/02 02:14:26;;;;;;;;;;;5.40;99.90;;;;;;4991021;28;19921;-73
2022/03/02 02:16:52;;;;;;;;;;;5.30;99.90;;;;;;4994954;28;19921;-74
2022/03/02 02:19:17;;;;;;;;;;;5.40;99.90;;;;;;4995466;28;19929;-74
2022/03/02 02:21:46;;;;;;;;;;;5.40;99.90;;;;;;4988628;28;20447;-74
2022/03/02 02:24:12;;;;;;;;;;;5.30;99.90;;;;;;4958689;28;19922;-74
2022/03/02 02:26:37;;;;;;;;;;;5.40;99.90;;;;;;4995007;28;19922;-74
2022/03/02 02:29:04;;;;;;;;;;;5.30;99.90;;;;;;4978613;28;19921;-74
2022/03/02 02:31:30;;;;;;;;;;;5.40;99.90;;;;;;4990383;28;19932;-73
2022/03/02 02:33:56;;;;;;;;;;;5.30;99.90;;;;;;4992028;28;20300;-73
2022/03/02 02:36:22;;;;;;;;;;;5.30;99.90;;;;;;4959593;28;20013;-73
2022/03/02 02:38:47;;;;;;;;;;;5.30;99.90;;;;;;4975724;28;20335;-74
2022/03/02 02:41:15;;;;;;;;;;;5.30;99.90;;;;;;4965020;28;19933;-74
2022/03/02 02:43:42;;;;;;;;;;;5.30;99.90;;;;;;5012399;28;19948;-73
2022/03/02 02:46:08;;;;;;;;;;;5.30;99.90;;;;;;4994781;28;19922;-73
2022/03/02 02:48:34;;;;;;;;;;;5.30;99.90;;;;;;4995068;28;20257;-74
2022/03/02 02:50:59;;;;;;;;;;;5.30;99.90;;;;;;4976958;28;20056;-76
2022/03/02 02:53:25;;;;;;;;;;;5.30;99.90;;;;;;4978671;28;20447;-73
2022/03/02 02:55:50;;;;;;;;;;;5.20;99.90;;;;;;4994937;28;19929;-73
2022/03/02 02:58:16;;;;;;;;;;;5.30;99.90;;;;;;4978869;28;19922;-74
2022/03/02 03:00:43;;;;;;;;;;;5.20;99.90;;;;;;4993282;28;19980;-76
2022/03/02 03:03:09;;;;;;;;;;;5.20;99.90;;;;;;4994602;28;20396;-73
2022/03/02 03:05:35;;;;;;;;;;;5.20;99.90;;;;;;4991490;28;20060;-73
2022/03/02 03:08:01;;;;;;;;;;;5.20;99.90;;;;;;4994613;28;19925;-75
2022/03/02 03:10:27;;;;;;;;;;;5.20;99.90;;;;;;4981608;28;19926;-73
2022/03/02 03:12:53;;;;;;;;;;;5.10;99.90;;;;;;4977825;28;19925;-74
2022/03/02 03:15:19;;;;;;;;;;;5.20;99.90;;;;;;5010838;28;19968;-73
2022/03/02 03:17:45;;;;;;;;;;;5.20;99.90;;;;;;4995062;28;19927;-74
2022/03/02 03:20:12;;;;;;;;;;;5.20;99.90;;;;;;4994611;28;20467;-73
2022/03/02 03:22:38;;;;;;;;;;;5.20;99.90;;;;;;4961499;28;19922;-73
2022/03/02 03:25:04;;;;;;;;;;;5.10;99.90;;;;;;5006387;28;19968;-73
2022/03/02 03:27:30;;;;;;;;;;;5.10;99.90;;;;;;4979815;28;19930;-73
2022/03/02 03:29:56;;;;;;;;;;;5.20;99.90;;;;;;5007652;28;20296;-74
2022/03/02 03:32:22;;;;;;;;;;;5.10;99.90;;;;;;4979979;28;19922;-73
2022/03/02 03:34:47;;;;;;;;;;;5.10;99.90;;;;;;4959674;28;19922;-73
2022/03/02 03:37:13;;;;;;;;;;;5.10;99.90;;;;;;4968311;28;19925;-74
2022/03/02 03:39:38;;;;;;;;;;;5.10;99.90;;;;;;5009887;28;19934;-73
2022/03/02 03:42:04;;;;;;;;;;;5.10;99.90;;;;;;4969924;28;19985;-74
2022/03/02 03:44:29;;;;;;;;;;;5.10;99.90;;;;;;4978380;28;19925;-73
2022/03/02 03:46:55;;;;;;;;;;;5.10;99.90;;;;;;4996224;28;19922;-74
2022/03/02 03:49:21;;;;;;;;;;;5.00;99.90;;;;;;4995085;28;19922;-73
2022/03/02 03:51:46;;;;;;;;;;;5.10;99.90;;;;;;4988044;28;20288;-73
2022/03/02 03:54:12;;;;;;;;;;;5.00;99.90;;;;;;4980812;28;19921;-73
2022/03/02 03:56:37;;;;;;;;;;;5.00;99.90;;;;;;4997946;28;20008;-74
2022/03/02 03:59:04;;;;;;;;;;;5.00;99.90;;;;;;5015346;28;19926;-73
2022/03/02 04:01:29;;;;;;;;;;;5.00;99.90;;;;;;4987436;28;19925;-75
2022/03/02 04:03:55;;;;;;;;;;;5.00;99.90;;;;;;4962506;28;19922;-73
2022/03/02 04:06:20;;;;;;;;;;;5.00;99.90;;;;;;4993851;28;20016;-73
2022/03/02 04:08:46;;;;;;;;;;;5.10;99.90;;;;;;5010742;28;19928;-73
2022/03/02 04:11:12;;;;;;;;;;;5.00;99.90;;;;;;4994477;28;19937;-73
2022/03/02 04:13:38;;;;;;;;;;;4.90;99.90;;;;;;4977794;28;19930;-74
2022/03/02 04:16:03;;;;;;;;;;;4.90;99.90;;;;;;4977075;28;20289;-73
2022/03/02 04:18:31;;;;;;;;;;;4.90;99.90;;;;;;4982513;28;19925;-73
2022/03/02 04:20:57;;;;;;;;;;;4.90;99.90;;;;;;4967619;28;19926;-74
2022/03/02 04:23:23;;;;;;;;;;;4.80;99.90;;;;;;4980671;28;20288;-73
2022/03/02 04:25:49;;;;;;;;;;;4.80;99.90;;;;;;4999276;28;20008;-76
2022/03/02 04:28:14;;;;;;;;;;;4.90;99.90;;;;;;4985006;28;19922;-75
2022/03/02 04:30:40;;;;;;;;;;;4.90;99.90;;;;;;5003244;28;20296;-76
2022/03/02 04:33:06;;;;;;;;;;;4.80;99.90;;;;;;4965822;28;19922;-75
2022/03/02 04:35:31;;;;;;;;;;;4.90;99.90;;;;;;4997335;28;20467;-76
2022/03/02 04:37:57;;;;;;;;;;;4.80;99.90;;;;;;4977782;28;19980;-76
2022/03/02 04:40:23;;;;;;;;;;;4.80;99.90;;;;;;4995292;28;19925;-76
2022/03/02 04:42:49;;;;;;;;;;;4.80;99.90;;;;;;4978276;28;19925;-76
2022/03/02 04:45:15;;;;;;;;;;;4.80;99.90;;;;;;4996797;28;19976;-76
2022/03/02 04:47:41;;;;;;;;;;;4.70;99.90;;;;;;4995828;28;19929;-76
2022/03/02 04:50:08;;;;;;;;;;;4.80;99.90;;;;;;5014537;28;19921;-75
2022/03/02 04:52:33;;;;;;;;;;;4.80;99.90;;;;;;4982199;28;19933;-75
2022/03/02 04:55:09;;;;;;;;;;;4.80;99.90;;;;;;4996914;28;20020;-76
2022/03/02 04:57:38;;;;;;;;;;;4.80;99.90;;;;;;4996971;28;19926;-75
2022/03/02 05:00:05;;;;;;;;;;;4.70;99.90;;;;;;4978446;28;19929;-76
2022/03/02 05:02:31;;;;;;;;;;;4.80;99.90;;;;;;4979351;28;19997;-75
2022/03/02 05:04:56;;;;;;;;;;;4.70;99.90;;;;;;4976888;28;20008;-76
2022/03/02 05:07:22;;;;;;;;;;;4.70;99.90;;;;;;4993297;28;19928;-76
2022/03/02 05:09:47;;;;;;;;;;;4.70;99.90;;;;;;4974878;28;19996;-76
2022/03/02 05:12:13;;;;;;;;;;;4.70;99.90;;;;;;5019266;28;19914;-74
2022/03/02 05:14:38;;;;;;;;;;;4.60;99.90;;;;;;4980255;28;19925;-76
2022/03/02 05:17:04;;;;;;;;;;;4.60;99.90;;;;;;4996615;28;19928;-76
2022/03/02 05:19:30;;;;;;;;;;;4.60;99.90;;;;;;4980711;28;19925;-75
2022/03/02 05:21:55;;;;;;;;;;;4.50;99.90;;;;;;5000944;28;20041;-75
2022/03/02 05:24:21;;;;;;;;;;;4.50;99.90;;;;;;4977951;28;19922;-76
2022/03/02 05:26:46;;;;;;;;;;;4.40;99.90;;;;;;4961094;28;19968;-76
2022/03/02 05:29:12;;;;;;;;;;;4.40;99.90;;;;;;4976978;28;19922;-76
2022/03/02 05:31:38;;;;;;;;;;;4.30;99.90;;;;;;4992666;28;20011;-76
2022/03/02 05:34:03;;;;;;;;;;;4.30;99.90;;;;;;4995639;28;19975;-75
2022/03/02 05:36:29;;;;;;;;;;;4.20;99.90;;;;;;4980195;28;19925;-76
2022/03/02 05:38:54;;;;;;;;;;;4.20;99.90;;;;;;4991717;28;19929;-76
2022/03/02 05:41:21;;;;;;;;;;;4.20;99.90;;;;;;5012374;28;19930;-76
2022/03/02 05:43:46;;;;;;;;;;;4.20;99.90;;;;;;5006475;28;20004;-75
2022/03/02 05:46:12;;;;;;;;;;;4.10;99.90;;;;;;4960915;28;20020;-75
2022/03/02 05:48:37;;;;;;;;;;;4.00;99.90;;;;;;4976815;28;19964;-76
2022/03/02 05:51:03;;;;;;;;;;;3.90;99.90;;;;;;4977028;28;20416;-76
2022/03/02 05:53:29;;;;;;;;;;;3.90;99.90;;;;;;4960648;28;19929;-75
2022/03/02 05:55:54;;;;;;;;;;;3.90;99.90;;;;;;4965906;28;19922;-75
2022/03/02 05:58:20;;;;;;;;;;;3.80;99.90;;;;;;4965092;28;19926;-76
2022/03/02 06:00:45;;;;;;;;;;;3.80;99.90;;;;;;5011746;28;19934;-76
2022/03/02 06:03:11;;;;;;;;;;;3.70;99.90;;;;;;5013266;28;20090;-75
2022/03/02 06:05:36;;;;;;;;;;;3.70;99.90;;;;;;4995523;28;20392;-74
2022/03/02 06:08:02;;;;;;;;;;;3.70;99.90;;;;;;4982303;28;20000;-76
2022/03/02 06:10:28;;;;;;;;;;;3.60;99.90;;;;;;4975906;28;19926;-75
2022/03/02 06:12:53;;;;;;;;;;;3.60;99.90;;;;;;4975929;28;20012;-75
2022/03/02 06:15:19;;;;;;;;;;;3.60;99.90;;;;;;5009834;28;20114;-75
2022/03/02 06:17:45;;;;;;;;;;;3.70;99.90;;;;;;4995331;28;19925;-74
2022/03/02 06:20:11;;;;;;;;;;;3.70;99.90;;;;;;4995489;28;19925;-76
2022/03/02 06:22:36;;;;;;;;;;;3.70;99.90;;;;;;4984636;28;19921;-76
2022/03/02 06:25:02;;;;;;;;;;;3.60;99.90;;;;;;4975715;28;19921;-76
2022/03/02 06:27:28;;;;;;;;;;;3.60;99.90;;;;;;5008749;28;19929;-76
2022/03/02 06:29:53;;;;;;;;;;;3.60;99.90;;;;;;4973666;28;20376;-76
2022/03/02 06:32:19;;;;;;;;;;;3.60;99.90;;;;;;4980409;28;19932;-75
2022/03/02 06:34:45;;;;;;;;;;;3.70;99.90;;;;;;4980000;28;19925;-76
2022/03/02 06:37:10;;;;;;;;;;;3.70;99.90;;;;;;4978824;28;20021;-76
2022/03/02 06:39:36;;;;;;;;;;;3.70;99.90;;;;;;4977022;28;19928;-76
2022/03/02 06:42:20;;;;;;;;;;;3.80;99.90;;;;;;4967687;28;20312;-74
2022/03/02 06:45:06;;;;;;;;;;;3.80;99.90;;;;;;4972337;28;20257;-76
2022/03/02 06:47:35;;;;;;;;;;;3.80;99.90;;;;;;4955414;28;19921;-76
2022/03/02 06:50:11;;;;;;;;;;;3.90;99.90;;;;;;4979277;28;19987;-76
2022/03/02 06:52:41;;;;;;;;;;;3.90;99.90;;;;;;4977959;28;19928;-76
2022/03/02 06:55:08;;;;;;;;;;;4.00;99.90;;;;;;4994516;28;20273;-76
2022/03/02 06:57:34;;;;;;;;;;;4.00;99.90;;;;;;4978587;28;19921;-75
2022/03/02 07:00:16;;;;;;;;;;;4.00;99.90;;;;;;4993344;28;19936;-75
2022/03/02 07:02:46;;;;;;;;;;;4.00;99.90;;;;;;4975469;28;19978;-76
2022/03/02 07:05:11;;;;;;;;;;;4.10;99.90;;;;;;4991617;28;19973;-76
2022/03/02 07:07:37;;;;;;;;;;;4.10;99.90;;;;;;4975657;28;20016;-76
2022/03/02 07:10:04;;;;;;;;;;;4.10;99.90;;;;;;4962677;28;20378;-76
2022/03/02 07:12:30;;;;;;;;;;;4.10;99.90;;;;;;5014484;28;19925;-77
2022/03/02 07:14:57;;;;;;;;;;;4.20;99.90;;;;;;4988609;28;19969;-74
2022/03/02 07:17:22;;;;;;;;;;;4.20;99.90;;;;;;4979053;28;19921;-76
2022/03/02 07:19:48;;;;;;;;;;;4.20;99.90;;;;;;4963501;28;19976;-74
2022/03/02 07:22:16;;;;;;;;;;;4.30;99.90;;;;;;5017121;28;19922;-74
2022/03/02 07:24:50;;;;;;;;;;;4.40;99.90;;;;;;4987977;28;19921;-74
2022/03/02 07:27:16;;;;;;;;;;;4.50;99.90;;;;;;4970256;28;20430;-75
2022/03/02 07:29:41;;;;;;;;;;;4.50;99.90;;;;;;4998960;28;19921;-75
2022/03/02 07:32:10;;;;;;;;;;;4.50;99.90;;;;;;4982335;28;20381;-77
2022/03/02 07:34:40;;;;;;;;;;;4.50;99.90;;;;;;4981675;28;19922;-75
2022/03/02 07:37:06;;;;;;;;;;;4.70;99.90;;;;;;4980072;28;19922;-75
2022/03/02 07:39:32;;;;;;;;;;;4.70;99.90;;;;;;4980573;28;20360;-76
2022/03/02 07:41:58;;;;;;;;;;;4.70;99.90;;;;;;4975635;28;19926;-76
2022/03/02 07:44:23;;;;;;;;;;;4.70;99.90;;;;;;4996648;28;19921;-75
2022/03/02 07:46:49;;;;;;;;;;;4.70;99.90;;;;;;4984078;28;20015;-75
2022/03/02 07:49:17;;;;;;;;;;;4.80;99.90;;;;;;4981538;28;19922;-76
2022/03/02 07:51:43;;;;;;;;;;;4.90;99.90;;;;;;4981659;28;19921;-76
2022/03/02 07:54:17;;;;;;;;;;;4.90;99.90;;;;;;4996676;28;20399;-75
2022/03/02 07:56:50;;;;;;;;;;;5.00;99.90;;;;;;4981870;28;19940;-76
2022/03/02 07:59:19;;;;;;;;;;;5.00;99.90;;;;;;4997671;28;19929;-76
2022/03/02 08:01:45;;;;;;;;;;;5.10;99.90;;;;;;4978512;28;19925;-76
2022/03/02 08:04:10;;;;;;;;;;;5.10;99.90;;;;;;4982694;28;19922;-77
2022/03/02 08:06:37;;;;;;;;;;;5.20;99.90;;;;;;4961980;28;19969;-76
2022/03/02 08:09:04;;;;;;;;;;;5.30;99.90;;;;;;4962374;28;19922;-76
2022/03/02 08:11:30;;;;;;;;;;;5.30;99.90;;;;;;4982048;28;20287;-76
2022/03/02 08:13:56;;;;;;;;;;;5.30;99.90;;;;;;4997553;28;19921;-76
2022/03/02 08:16:23;;;;;;;;;;;5.40;99.90;;;;;;4997460;28;20756;-75
2022/03/02 08:18:49;;;;;;;;;;;5.50;99.90;;;;;;4997437;28;19936;-77
2022/03/02 08:21:18;;;;;;;;;;;5.50;99.90;;;;;;4980078;28;19921;-77
2022/03/02 08:23:45;;;;;;;;;;;5.40;99.90;;;;;;4961743;28;20381;-77
2022/03/02 08:26:12;;;;;;;;;;;5.50;99.90;;;;;;4995693;28;20377;-76
2022/03/02 08:28:41;;;;;;;;;;;5.60;99.90;;;;;;4994380;28;19922;-76
2022/03/02 08:31:09;;;;;;;;;;;5.60;99.90;;;;;;4962173;28;19963;-77
2022/03/02 08:33:36;;;;;;;;;;;5.70;99.90;;;;;;4961368;28;19972;-76
2022/03/02 08:36:05;;;;;;;;;;;5.70;99.90;;;;;;4974394;28;20346;-77
2022/03/02 08:38:40;;;;;;;;;;;5.80;99.90;;;;;;4997222;28;20016;-76
2022/03/02 08:41:07;;;;;;;;;;;5.80;99.90;;;;;;4996385;28;19922;-77
2022/03/02 08:43:34;;;;;;;;;;;6.00;99.90;;;;;;4961808;28;19921;-77
2022/03/02 08:46:00;;;;;;;;;;;6.00;99.90;;;;;;4961897;28;19925;-76
2022/03/02 08:48:26;;;;;;;;;;;6.00;99.90;;;;;;4975125;28;20012;-77
2022/03/02 08:50:54;;;;;;;;;;;6.10;99.90;;;;;;4997221;28;19968;-77
2022/03/02 08:53:20;;;;;;;;;;;6.20;99.90;;;;;;4997554;28;19926;-77
2022/03/02 08:55:50;;;;;;;;;;;6.20;99.90;;;;;;4994923;28;19928;-77
2022/03/02 08:58:16;;;;;;;;;;;6.20;99.90;;;;;;4961427;28;20387;-77
2022/03/02 09:00:42;;;;;;;;;;;6.20;99.90;;;;;;4961157;28;19972;-77
2022/03/02 09:03:11;;;;;;;;;;;6.30;99.90;;;;;;4976441;28;19922;-77
2022/03/02 09:05:37;;;;;;;;;;;6.20;99.90;;;;;;4980883;28;19944;-77
2022/03/02 09:08:03;;;;;;;;;;;6.30;99.90;;;;;;5013559;28;20015;-77
2022/03/02 09:10:32;;;;;;;;;;;6.30;99.90;;;;;;4997130;28;20028;-77
2022/03/02 09:12:59;;;;;;;;;;;6.20;99.90;;;;;;4996596;28;19972;-77
2022/03/02 09:15:26;;;;;;;;;;;6.30;99.90;;;;;;4980069;28;19921;-77
2022/03/02 09:17:55;;;;;;;;;;;6.10;99.90;;;;;;4980369;28;19926;-77
2022/03/02 09:20:22;;;;;;;;;;;6.10;99.90;;;;;;4996684;28;19921;-77
2022/03/02 09:22:50;;;;;;;;;;;6.10;99.90;;;;;;4996493;28;19921;-77
2022/03/02 09:25:19;;;;;;;;;;;6.00;99.90;;;;;;4996835;28;19925;-77
2022/03/02 09:27:49;;;;;;;;;;;5.90;99.90;;;;;;4986984;28;20415;-77
2022/03/02 09:30:15;;;;;;;;;;;5.90;99.90;;;;;;4961048;28;20324;-77
2022/03/02 09:32:41;;;;;;;;;;;6.00;99.90;;;;;;4960147;28;19922;-77
2022/03/02 09:35:10;;;;;;;;;;;6.20;99.90;;;;;;4961036;28;19972;-77
2022/03/02 09:37:40;;;;;;;;;;;6.30;99.90;;;;;;4993080;28;20357;-77
2022/03/02 09:40:07;;;;;;;;;;;6.40;99.90;;;;;;5010652;28;19991;-76
2022/03/02 09:42:50;;;;;;;;;;;6.60;99.90;;;;;;4962186;28;19925;-77
2022/03/02 09:45:22;;;;;;;;;;;6.90;99.90;;;;;;4996332;28;20416;-77
2022/03/02 09:47:58;;;;;;;;;;;7.00;99.90;;;;;;4996441;28;20454;-77
2022/03/02 09:50:25;;;;;;;;;;;7.00;99.90;;;;;;4996043;28;20408;-77
2022/03/02 09:52:54;;;;;;;;;;;7.10;99.90;;;;;;4989842;28;19921;-77
2022/03/02 09:55:22;;;;;;;;;;;7.50;99.90;;;;;;4978938;28;19932;-76
2022/03/02 09:57:49;;;;;;;;;;;8.00;99.90;;;;;;4996048;28;19933;-77
2022/03/02 10:00:16;;;;;;;;;;;8.50;99.90;;;;;;4980287;28;19921;-77
2022/03/02 10:02:43;;;;;;;;;;;9.30;99.90;;;;;;4996234;28;20033;-77
2022/03/02 10:05:16;;;;;;;;;;;10.00;99.70;;;;;;4996186;28;19929;-77
2022/03/02 10:07:45;;;;;;;;;;;10.60;98.70;;;;;;4994971;28;19921;-77
2022/03/02 10:10:22;;;;;;;;;;;11.20;94.80;;;;;;4979276;28;19921;-78
2022/03/02 10:12:49;;;;;;;;;;;11.50;90.80;;;;;;4979268;28;20284;-78
2022/03/02 10:15:14;;;;;;;;;;;11.80;87.80;;;;;;4980117;28;20590;-77
2022/03/02 10:17:41;;;;;;;;;;;12.20;88.50;;;;;;4996272;28;19925;-78
2022/03/02 10:20:12;;;;;;;;;;;12.50;82.80;;;;;;4979771;28;19932;-77
2022/03/02 10:22:40;;;;;;;;;;;12.90;71.20;;;;;;4979802;28;20052;-78
2022/03/02 10:25:08;;;;;;;;;;;13.10;76.10;;;;;;4981142;28;20355;-77
2022/03/02 10:27:54;;;;;;;;;;;13.40;70.00;;;;;;4994976;28;20412;-77
2022/03/02 10:30:20;;;;;;;;;;;13.60;67.40;;;;;;4979299;28;19926;-77
2022/03/02 10:32:48;;;;;;;;;;;13.80;63.80;;;;;;4959183;28;20024;-77
2022/03/02 10:35:14;;;;;;;;;;;14.00;60.00;;;;;;4959646;28;19928;-77
2022/03/02 10:37:50;;;;;;;;;;;14.30;60.10;;;;;;5010417;28;19975;-77
2022/03/02 10:40:29;;;;;;;;;;;14.40;58.80;;;;;;4979055;28;19932;-77
2022/03/02 10:43:00;;;;;;;;;;;14.50;58.20;;;;;;4978306;28;19936;-77
2022/03/02 10:45:34;;;;;;;;;;;14.40;55.00;;;;;;4979549;28;19929;-76
2022/03/02 10:48:11;;;;;;;;;;;14.40;57.30;;;;;;4992709;28;19925;-76
2022/03/02 10:50:38;;;;;;;;;;;14.50;55.60;;;;;;4959668;28;19976;-77
2022/03/02 10:53:04;;;;;;;;;;;14.60;59.50;;;;;;4958982;28;19922;-76
2022/03/02 10:55:31;;;;;;;;;;;14.80;55.10;;;;;;5010657;28;20024;-77
2022/03/02 10:58:00;;;;;;;;;;;15.00;53.70;;;;;;4978361;28;19979;-76
2022/03/02 11:00:33;;;;;;;;;;;14.90;51.70;;;;;;4976855;28;19933;-76
2022/03/02 11:03:04;;;;;;;;;;;15.00;52.20;;;;;;4978540;28;19932;-77
2022/03/02 11:05:30;;;;;;;;;;;15.00;52.00;;;;;;4978386;28;19926;-76
2022/03/02 11:08:03;;;;;;;;;;;15.00;50.60;;;;;;4978191;28;20004;-76
2022/03/02 11:10:33;;;;;;;;;;;14.90;52.60;;;;;;4991166;28;19922;-76
2022/03/02 11:13:10;;;;;;;;;;;15.20;54.90;;;;;;4958733;28;19969;-77
2022/03/02 11:15:49;;;;;;;;;;;15.60;51.20;;;;;;4961961;28;20016;-77
2022/03/02 11:18:17;;;;;;;;;;;15.60;49.10;;;;;;4978288;28;19929;-77
2022/03/02 11:21:03;;;;;;;;;;;15.40;49.60;;;;;;4978580;28;19980;-77
2022/03/02 11:23:46;;;;;;;;;;;15.40;47.60;;;;;;4990845;28;19922;-77
2022/03/02 11:26:16;;;;;;;;;;;15.10;48.50;;;;;;4990647;28;20001;-77
2022/03/02 11:28:54;;;;;;;;;;;14.80;49.30;;;;;;4993709;28;19921;-77
2022/03/02 11:31:31;;;;;;;;;;;14.70;49.30;;;;;;4978503;28;20394;-77
2022/03/02 11:34:11;;;;;;;;;;;14.70;50.50;;;;;;4994202;28;20023;-77
2022/03/02 11:36:37;;;;;;;;;;;14.90;49.80;;;;;;4978166;28;20507;-76
2022/03/02 11:39:06;;;;;;;;;;;15.20;49.60;;;;;;4994418;28;19968;-77
2022/03/02 11:41:36;;;;;;;;;;;15.20;47.90;;;;;;4990655;28;19980;-76
2022/03/02 11:44:26;;;;;;;;;;;15.10;48.90;;;;;;4993895;28;20023;-77
2022/03/02 11:46:52;;;;;;;;;;;15.00;48.80;;;;;;4994529;28;19936;-76
2022/03/02 11:49:17;;;;;;;;;;;15.10;48.10;;;;;;4994416;28;20008;-77
2022/03/02 11:52:05;;;;;;;;;;;15.30;50.70;;;;;;4988602;28;20008;-76
2022/03/02 11:54:41;;;;;;;;;;;15.90;50.70;;;;;;4993567;28;19922;-76
2022/03/02 11:57:18;;;;;;;;;;;16.30;46.00;;;;;;4997267;28;19972;-77
2022/03/02 11:59:47;;;;;;;;;;;16.20;46.60;;;;;;4998082;28;20017;-76
2022/03/02 12:02:21;;;;;;;;;;;16.30;47.00;;;;;;4982116;28;19925;-76
2022/03/02 12:05:08;;;;;;;;;;;16.30;46.30;;;;;;4997814;28;19921;-76
2022/03/02 12:07:44;;;;;;;;;;;16.20;46.70;;;;;;4978508;28;19980;-76
2022/03/02 12:10:20;;;;;;;;;;;16.10;48.10;;;;;;4978233;28;19937;-76
2022/03/02 12:12:46;;;;;;;;;;;16.30;46.80;;;;;;4961811;28;19921;-76
2022/03/02 12:15:15;;;;;;;;;;;16.50;46.20;;;;;;4978218;28;20016;-76
2022/03/02 12:17:40;;;;;;;;;;;16.70;46.10;;;;;;4977734;28;19932;-76
2022/03/02 12:20:08;;;;;;;;;;;16.40;46.40;;;;;;4984499;28;20384;-76
2022/03/02 12:22:35;;;;;;;;;;;16.20;46.60;;;;;;4997429;28;20281;-76
2022/03/02 12:25:03;;;;;;;;;;;16.50;48.90;;;;;;4997211;28;19931;-77
2022/03/02 12:27:29;;;;;;;;;;;16.60;45.90;;;;;;4996909;28;19972;-76
2022/03/02 12:30:00;;;;;;;;;;;16.50;46.80;;;;;;4997549;28;19926;-76
2022/03/02 12:32:33;;;;;;;;;;;16.40;46.10;;;;;;4997946;28;19921;-76
2022/03/02 12:35:00;;;;;;;;;;;16.20;46.40;;;;;;4987866;28;19922;-76
2022/03/02 12:37:32;;;;;;;;;;;16.00;45.70;;;;;;4978527;28;20020;-77
2022/03/02 12:40:00;;;;;;;;;;;15.70;46.90;;;;;;4961879;28;20598;-76
2022/03/02 12:42:29;;;;;;;;;;;15.70;47.50;;;;;;4962081;28;19922;-76
2022/03/02 12:45:04;;;;;;;;;;;16.10;46.70;;;;;;4980020;28;19928;-76
2022/03/02 12:47:31;;;;;;;;;;;15.90;46.10;;;;;;4997089;28;19925;-76
2022/03/02 12:50:00;;;;;;;;;;;16.00;46.50;;;;;;4997192;28;19922;-76
2022/03/02 12:52:35;;;;;;;;;;;16.10;46.20;;;;;;4996752;28;19921;-76
2022/03/02 12:55:02;;;;;;;;;;;15.90;47.00;;;;;;5009085;28;19976;-76
2022/03/02 12:57:29;;;;;;;;;;;15.80;47.30;;;;;;4993804;28;19928;-76
2022/03/02 12:59:58;;;;;;;;;;;15.80;46.50;;;;;;4961781;28;20276;-76
2022/03/02 13:02:34;;;;;;;;;;;15.70;46.80;;;;;;4995185;28;19989;-77
2022/03/02 13:05:12;;;;;;;;;;;15.50;47.10;;;;;;4991182;28;19932;-76
2022/03/02 13:07:51;;;;;;;;;;;15.40;47.50;;;;;;4990763;28;19921;-73
2022/03/02 13:10:20;;;;;;;;;;;15.70;46.40;;;;;;5007512;28;20004;-73
2022/03/02 13:12:51;;;;;;;;;;;15.60;46.40;;;;;;4979760;28;19921;-73
2022/03/02 13:15:32;;;;;;;;;;;15.60;46.20;;;;;;4980850;28;19971;-74
2022/03/02 13:18:06;;;;;;;;;;;15.80;46.00;;;;;;4996633;28;20016;-74
2022/03/02 13:20:33;;;;;;;;;;;15.90;47.50;;;;;;4984367;28;20012;-74
2022/03/02 13:23:20;;;;;;;;;;;16.10;44.50;;;;;;4985650;28;19922;-74
2022/03/02 13:25:54;;;;;;;;;;;16.10;45.80;;;;;;4976729;28;19921;-74
2022/03/02 13:28:22;;;;;;;;;;;16.20;45.70;;;;;;4978485;28;19973;-74
2022/03/02 13:31:08;;;;;;;;;;;16.30;44.60;;;;;;5008999;28;19921;-74
2022/03/02 13:33:55;;;;;;;;;;;16.00;45.00;;;;;;4975623;28;19944;-74
2022/03/02 13:36:39;;;;;;;;;;;15.90;45.90;;;;;;4988656;28;19925;-75
2022/03/02 13:39:07;;;;;;;;;;;16.00;45.20;;;;;;4992711;28;19962;-75
2022/03/02 13:41:39;;;;;;;;;;;16.20;45.40;;;;;;4960430;28;19926;-75
2022/03/02 13:44:23;;;;;;;;;;;16.10;44.50;;;;;;4961354;28;19968;-75
2022/03/02 13:47:14;;;;;;;;;;;16.20;45.30;;;;;;4978569;28;20288;-74
2022/03/02 13:49:47;;;;;;;;;;;16.30;45.00;;;;;;4989293;28;20393;-76
2022/03/02 13:52:13;;;;;;;;;;;16.00;44.40;;;;;;4960200;28;19928;-75
2022/03/02 13:54:39;;;;;;;;;;;15.80;45.40;;;;;;4966054;28;19921;-75
2022/03/02 13:57:04;;;;;;;;;;;16.10;45.30;;;;;;4994082;28;19928;-76
2022/03/02 13:59:32;;;;;;;;;;;15.90;44.10;;;;;;4995567;28;20020;-75
2022/03/02 14:01:58;;;;;;;;;;;15.90;44.70;;;;;;4995243;28;20419;-74
2022/03/02 14:04:29;;;;;;;;;;;16.00;44.70;;;;;;5010592;28;19922;-75
2022/03/02 14:07:06;;;;;;;;;;;15.80;43.40;;;;;;4979159;28;19921;-75
2022/03/02 14:09:32;;;;;;;;;;;15.40;44.00;;;;;;4960073;28;19971;-75
2022/03/02 14:12:02;;;;;;;;;;;15.30;44.90;;;;;;4976058;28;19922;-75
2022/03/02 14:14:32;;;;;;;;;;;15.20;45.00;;;;;;4978629;28;19929;-75
2022/03/02 14:17:03;;;;;;;;;;;15.20;45.30;;;;;;4994280;28;19922;-75
2022/03/02 14:19:39;;;;;;;;;;;15.10;44.80;;;;;;5008733;28;19925;-75
2022/03/02 14:22:06;;;;;;;;;;;14.80;45.80;;;;;;4979738;28;19925;-75
2022/03/02 14:24:33;;;;;;;;;;;14.70;45.60;;;;;;4979117;28;19922;-75
2022/03/02 14:27:03;;;;;;;;;;;14.70;46.10;;;;;;4978944;28;19922;-75
2022/03/02 14:29:29;;;;;;;;;;;14.50;48.30;;;;;;4978361;28;19929;-75
2022/03/02 14:31:59;;;;;;;;;;;14.60;46.30;;;;;;4978747;28;20380;-77